Nearby METAR Reports

 

KPVU - Provo Muni, Utah, USA
Distance from station: S 9mi, 15km
Updated: Tue, 22-Oct-2019 9:56pm MDT
Clear
Clear
 Wind from ESE
Wind: ESE 3 mph , 6 km/h
Barometer: 30.24 inHg , 1024 hPa
Clouds: Clear
Visibility: 10 miles , 16 km
2019/10/23 03:56 KPVU 230356Z AUTO 11003KT 10SM CLR A3024 RMK AO2 SLPNO FZRANO $
K36U - Heber/Russ Mcdon, Utah, USA
Distance from station: ENE 17mi, 27km
Updated: Wed, 11-Oct-2017 6:50pm MDT
NOT Current
Clear
Clear
 Wind from SSW
Wind: SSW 10 mph , 17 km/h, Gust: 18 mph , 30 km/h
Temperature: 63°F , 17°C
Dew Point: 16°F , -9°C
Humidity: 16%
Barometer: 29.87 inHg , 1011.5 hPa
Clouds: Clear
Visibility: 10 miles , 16 km
2017/10/12 00:50 K36U 120050Z AUTO 21009G16KT 10SM CLR 17/M09 A2987 RMK AO2
 
KSLC - Salt Lake City, Utah, USA
Distance from station: NNW 33mi, 53km
Updated: Tue, 22-Oct-2019 9:54pm MDT
Few Clouds
Few Clouds
 Wind from SSE
Wind: SSE 3 mph , 6 km/h
Temperature: 50°F , 10°C
Dew Point: 34°F , 1°C
Humidity: 54%
Barometer: 30.22 inHg , 1023.4 hPa
Clouds: Few Clouds
Visibility: 10 miles , 16 km
Cloud details: Few Clouds 5000 ft
Few Clouds 9000 ft
2019/10/23 03:54 KSLC 230354Z 15003KT 10SM FEW050 FEW090 10/01 A3022 RMK AO2 SLP214 T01000011 $